Time;durP1;ratioP1;P1;durP2;ratioP2;P2;SDS_P1;SDS_P2;PMS_P1;PMS_P2;Temp;Humidity;BMP_temperature;BMP_pressure;BME280_temperature;BME280_humidity;BME280_pressure;Samples;Min_cycle;Max_cycle;Signal;HPM_P1;HPM_P2
2022/10/16 00:01:25;;;;;;;0.87;0.87;;;19.80;73.40;;;;;;5085090;27;43536;-73
2022/10/16 00:03:53;;;;;;;0.80;0.80;;;19.80;73.30;;;;;;5086889;27;44543;-73
2022/10/16 00:06:22;;;;;;;0.93;0.93;;;19.80;73.20;;;;;;5085447;27;43453;-73
2022/10/16 00:08:50;;;;;;;0.93;0.93;;;19.80;73.60;;;;;;5085393;27;43542;-74
2022/10/16 00:11:19;;;;;;;0.90;0.90;;;19.70;73.30;;;;;;5101175;27;43634;-74
2022/10/16 00:13:47;;;;;;;0.90;0.90;;;19.70;73.30;;;;;;5086259;28;43594;-73
2022/10/16 00:16:17;;;;;;;0.83;0.83;;;19.70;73.30;;;;;;5096311;27;43534;-74
2022/10/16 00:18:45;;;;;;;0.83;0.83;;;19.70;73.30;;;;;;5091261;27;43470;-73
2022/10/16 00:21:15;;;;;;;0.80;0.80;;;19.60;73.80;;;;;;5095516;27;43502;-73
2022/10/16 00:23:43;;;;;;;0.90;0.90;;;19.70;73.30;;;;;;5096029;27;43727;-73
2022/10/16 00:26:12;;;;;;;1.13;1.13;;;19.70;73.50;;;;;;5087927;27;43501;-73
2022/10/16 00:28:40;;;;;;;0.80;0.80;;;19.80;73.10;;;;;;5090709;27;43445;-73
2022/10/16 00:31:09;;;;;;;0.90;0.90;;;19.80;72.90;;;;;;5093511;27;43414;-74
2022/10/16 00:33:39;;;;;;;0.83;0.83;;;19.80;72.90;;;;;;5088510;27;43624;-73
2022/10/16 00:36:08;;;;;;;0.90;0.90;;;19.80;73.20;;;;;;5092221;27;43484;-73
2022/10/16 00:38:37;;;;;;;0.77;0.77;;;19.80;73.10;;;;;;5100786;27;43502;-73
2022/10/16 00:41:05;;;;;;;1.00;1.00;;;19.80;73.00;;;;;;5102733;27;43431;-73
2022/10/16 00:43:40;;;;;;;0.73;0.73;;;19.80;73.10;;;;;;5092348;27;43817;-73
2022/10/16 00:46:14;;;;;;;1.00;1.00;;;19.70;73.20;;;;;;5089054;27;44867;-73
2022/10/16 00:48:44;;;;;;;0.90;0.90;;;19.60;73.70;;;;;;5100213;27;43424;-73
2022/10/16 00:51:12;;;;;;;0.80;0.80;;;19.70;73.80;;;;;;5096630;27;43453;-73
2022/10/16 00:53:39;;;;;;;0.97;0.97;;;19.60;73.50;;;;;;5089963;27;43599;-73
2022/10/16 00:56:07;;;;;;;0.70;0.70;;;19.60;73.50;;;;;;5094444;27;43758;-73
2022/10/16 00:58:35;;;;;;;0.87;0.87;;;19.60;73.60;;;;;;5097703;27;43462;-74
2022/10/16 01:01:03;;;;;;;0.80;0.80;;;19.50;74.00;;;;;;5095311;27;43632;-72
2022/10/16 01:03:32;;;;;;;0.90;0.90;;;19.60;74.10;;;;;;5090411;27;43588;-72
2022/10/16 01:06:23;;;;;;;0.80;0.80;;;19.70;73.70;;;;;;5089227;27;43438;-71
2022/10/16 01:09:02;;;;;;;0.90;0.90;;;19.90;73.10;;;;;;5091061;27;43456;-72
2022/10/16 01:11:33;;;;;;;0.70;0.70;;;20.00;73.30;;;;;;5123605;27;43483;-74
2022/10/16 01:14:04;;;;;;;1.10;1.10;;;20.00;72.40;;;;;;5106886;27;45037;-74
2022/10/16 01:16:35;;;;;;;0.80;0.80;;;20.00;72.40;;;;;;5102467;27;43899;-71
2022/10/16 01:19:09;;;;;;;0.90;0.90;;;19.90;72.50;;;;;;5089486;27;43903;-71
2022/10/16 01:21:40;;;;;;;0.90;0.90;;;19.80;72.60;;;;;;5091452;27;43957;-71
2022/10/16 01:24:09;;;;;;;0.80;0.80;;;19.70;73.30;;;;;;5096402;27;43977;-71
2022/10/16 01:26:44;;;;;;;0.73;0.73;;;19.80;73.50;;;;;;5093158;27;43551;-71
2022/10/16 01:29:15;;;;;;;0.60;0.60;;;19.70;73.30;;;;;;5090669;27;43981;-73
2022/10/16 01:31:45;;;;;;;0.70;0.70;;;19.60;73.20;;;;;;5089260;27;44002;-72
2022/10/16 01:34:16;;;;;;;0.80;0.80;;;19.60;73.40;;;;;;5089354;27;43792;-71
2022/10/16 01:36:46;;;;;;;0.87;0.87;;;19.60;73.80;;;;;;5091917;27;43442;-70
2022/10/16 01:39:14;;;;;;;0.80;0.80;;;19.60;73.80;;;;;;5089873;27;43495;-71
2022/10/16 01:41:44;;;;;;;0.87;0.87;;;19.60;73.60;;;;;;5104311;27;44155;-74
2022/10/16 01:44:14;;;;;;;0.77;0.77;;;19.60;73.60;;;;;;5091831;27;43606;-71
2022/10/16 01:46:43;;;;;;;0.83;0.83;;;19.60;73.60;;;;;;5089453;27;43987;-71
2022/10/16 01:49:11;;;;;;;0.73;0.73;;;19.50;74.00;;;;;;5097040;27;43895;-72
2022/10/16 01:51:39;;;;;;;1.07;1.07;;;19.50;74.10;;;;;;5087551;27;43475;-75
2022/10/16 01:54:08;;;;;;;0.80;0.80;;;19.70;73.90;;;;;;5091350;27;43705;-72
2022/10/16 01:56:36;;;;;;;0.70;0.70;;;19.80;73.30;;;;;;5092637;27;43423;-71
2022/10/16 01:59:06;;;;;;;0.87;0.87;;;20.00;72.80;;;;;;5088941;27;43410;-72
2022/10/16 02:01:36;;;;;;;0.80;0.80;;;20.10;72.40;;;;;;5083835;27;43986;-71
2022/10/16 02:04:06;;;;;;;0.70;0.70;;;20.10;72.30;;;;;;5087695;27;44154;-73
2022/10/16 02:06:35;;;;;;;0.90;0.90;;;20.00;72.30;;;;;;5084146;28;44408;-72
2022/10/16 02:09:03;;;;;;;0.90;0.90;;;19.90;72.50;;;;;;5091449;27;43469;-72
2022/10/16 02:11:31;;;;;;;0.77;0.77;;;19.80;72.70;;;;;;5094542;27;43925;-71
2022/10/16 02:14:01;;;;;;;0.80;0.80;;;19.80;73.30;;;;;;5088553;27;43621;-71
2022/10/16 02:16:35;;;;;;;0.90;0.90;;;19.80;73.40;;;;;;5093142;27;43436;-71
2022/10/16 02:19:03;;;;;;;0.93;0.70;;;19.70;73.20;;;;;;5088973;27;43455;-71
2022/10/16 02:21:34;;;;;;;0.80;0.80;;;19.70;73.20;;;;;;5091925;27;43473;-72
2022/10/16 02:24:03;;;;;;;1.00;1.00;;;19.60;73.30;;;;;;5090751;27;43855;-72
2022/10/16 02:26:32;;;;;;;0.70;0.70;;;19.60;73.80;;;;;;5090076;27;43999;-71
2022/10/16 02:29:01;;;;;;;0.70;0.70;;;19.60;73.90;;;;;;5088210;27;43982;-71
2022/10/16 02:31:30;;;;;;;0.90;0.90;;;19.60;73.70;;;;;;5088506;27;44111;-72
2022/10/16 02:33:59;;;;;;;0.60;0.60;;;19.60;73.60;;;;;;5087594;28;43841;-70
2022/10/16 02:36:27;;;;;;;0.80;0.80;;;19.60;73.60;;;;;;5088368;27;43505;-72
2022/10/16 02:38:55;;;;;;;0.90;0.90;;;19.50;73.80;;;;;;5093407;27;43468;-72
2022/10/16 02:41:23;;;;;;;0.80;0.80;;;19.50;74.20;;;;;;5086277;27;114479;-72
2022/10/16 02:43:51;;;;;;;0.90;0.90;;;19.60;74.00;;;;;;5088788;27;43651;-69
2022/10/16 02:46:19;;;;;;;0.80;0.80;;;19.70;73.50;;;;;;5096658;27;43561;-71
2022/10/16 02:48:47;;;;;;;0.80;0.80;;;19.90;72.90;;;;;;5089136;27;44018;-72
2022/10/16 02:51:16;;;;;;;0.80;0.80;;;20.00;72.40;;;;;;5092148;27;43513;-71
2022/10/16 02:53:44;;;;;;;0.73;0.73;;;20.10;72.40;;;;;;5095867;27;43619;-72
2022/10/16 02:56:12;;;;;;;0.70;0.70;;;20.00;72.30;;;;;;5086454;27;43986;-71
2022/10/16 02:58:40;;;;;;;0.70;0.70;;;19.90;72.40;;;;;;5087934;27;43635;-70
2022/10/16 03:01:08;;;;;;;0.70;0.70;;;19.80;72.70;;;;;;5092826;27;44182;-71
2022/10/16 03:03:36;;;;;;;0.80;0.80;;;19.80;73.30;;;;;;5084302;27;43899;-70
2022/10/16 03:06:04;;;;;;;0.80;0.80;;;19.70;73.40;;;;;;5086814;27;44730;-71
2022/10/16 03:08:33;;;;;;;0.90;0.90;;;19.70;73.30;;;;;;5083091;27;43486;-70
2022/10/16 03:11:01;;;;;;;0.70;0.70;;;19.70;73.30;;;;;;5091297;27;44036;-71
2022/10/16 03:13:29;;;;;;;0.83;0.80;;;19.70;73.30;;;;;;5087494;27;43811;-71
2022/10/16 03:15:57;;;;;;;0.77;0.77;;;19.60;73.50;;;;;;5084863;27;43410;-71
2022/10/16 03:18:25;;;;;;;0.83;0.83;;;19.60;74.00;;;;;;5086587;27;43489;-71
2022/10/16 03:20:52;;;;;;;0.60;0.60;;;19.70;74.00;;;;;;5088834;27;44062;-73
2022/10/16 03:23:20;;;;;;;0.90;0.90;;;19.70;73.50;;;;;;5089558;27;44011;-73
2022/10/16 03:25:50;;;;;;;0.87;0.87;;;19.80;73.30;;;;;;5089523;27;43482;-71
2022/10/16 03:28:18;;;;;;;0.90;0.90;;;19.80;73.10;;;;;;5091154;27;45326;-71
2022/10/16 03:30:46;;;;;;;0.77;0.77;;;19.70;73.40;;;;;;5086363;27;43490;-71
2022/10/16 03:33:13;;;;;;;0.80;0.80;;;19.70;73.60;;;;;;5091584;27;43547;-71
2022/10/16 03:35:41;;;;;;;1.00;1.00;;;19.70;73.50;;;;;;5085989;27;45034;-71
2022/10/16 03:38:09;;;;;;;0.90;0.90;;;19.70;73.30;;;;;;5089073;27;43433;-71
2022/10/16 03:40:37;;;;;;;0.80;0.80;;;19.70;73.40;;;;;;5087633;27;43568;-71
2022/10/16 03:43:07;;;;;;;0.70;0.70;;;19.60;73.50;;;;;;5091207;27;43611;-71
2022/10/16 03:45:34;;;;;;;1.03;1.03;;;19.60;73.90;;;;;;5085375;27;44129;-70
2022/10/16 03:48:03;;;;;;;2.60;1.47;;;19.70;73.80;;;;;;5088787;27;43498;-72
2022/10/16 03:50:31;;;;;;;1.20;1.20;;;19.80;73.30;;;;;;5091308;27;43508;-70
2022/10/16 03:52:58;;;;;;;1.53;1.43;;;19.90;72.90;;;;;;5088819;27;43848;-71
2022/10/16 03:55:26;;;;;;;1.33;1.30;;;19.90;72.80;;;;;;5089224;27;44821;-71
2022/10/16 03:57:54;;;;;;;1.50;1.40;;;19.90;72.90;;;;;;5089874;27;43469;-71
2022/10/16 04:00:23;;;;;;;1.60;1.50;;;19.90;73.00;;;;;;5089411;27;43568;-72
2022/10/16 04:02:51;;;;;;;1.57;1.47;;;19.90;72.90;;;;;;5089287;27;43905;-72
2022/10/16 04:05:19;;;;;;;1.60;1.50;;;19.80;72.90;;;;;;5088896;27;43418;-72
2022/10/16 04:07:47;;;;;;;1.13;1.13;;;19.80;73.00;;;;;;5089282;27;43497;-71
2022/10/16 04:10:15;;;;;;;1.97;1.77;;;19.70;73.10;;;;;;5087911;27;43551;-70
2022/10/16 04:12:43;;;;;;;2.30;1.60;;;19.70;73.70;;;;;;5088278;28;43917;-73
2022/10/16 04:15:11;;;;;;;1.73;1.60;;;19.70;73.70;;;;;;5089792;27;43431;-71
2022/10/16 04:17:40;;;;;;;1.80;1.70;;;19.70;73.50;;;;;;5089631;28;43500;-71
2022/10/16 04:20:09;;;;;;;1.77;1.47;;;19.70;73.50;;;;;;5088201;28;43546;-72
2022/10/16 04:22:36;;;;;;;2.07;1.97;;;19.60;73.50;;;;;;5088836;27;44181;-71
2022/10/16 04:25:05;;;;;;;2.43;2.23;;;19.60;73.90;;;;;;5090110;27;43432;-71
2022/10/16 04:27:33;;;;;;;3.33;2.27;;;19.60;74.10;;;;;;5089229;27;43450;-72
2022/10/16 04:30:01;;;;;;;3.20;2.47;;;19.70;73.70;;;;;;5089657;27;43493;-72
2022/10/16 04:32:29;;;;;;;2.67;2.47;;;19.80;73.30;;;;;;5088847;27;43840;-70
2022/10/16 04:34:58;;;;;;;2.53;2.27;;;19.80;73.00;;;;;;5089501;28;43461;-72
2022/10/16 04:37:26;;;;;;;3.03;2.50;;;19.80;73.00;;;;;;5089642;28;43388;-70
2022/10/16 04:39:55;;;;;;;3.80;2.70;;;19.80;73.30;;;;;;5089222;27;44066;-72
2022/10/16 04:42:23;;;;;;;4.93;3.00;;;19.80;73.20;;;;;;5088914;28;43971;-72
2022/10/16 04:44:50;;;;;;;3.17;2.60;;;19.80;73.10;;;;;;5089256;28;43467;-71
2022/10/16 04:47:18;;;;;;;2.90;2.60;;;19.80;73.00;;;;;;5089794;27;43888;-70
2022/10/16 04:49:47;;;;;;;5.60;3.13;;;19.70;73.10;;;;;;5088874;27;43418;-70
2022/10/16 04:52:17;;;;;;;3.53;3.10;;;19.70;73.70;;;;;;5089688;27;44383;-72
2022/10/16 04:54:45;;;;;;;3.10;2.90;;;19.70;73.70;;;;;;5089485;27;43477;-72
2022/10/16 04:57:13;;;;;;;4.70;3.37;;;19.70;73.60;;;;;;5089375;27;43343;-70
2022/10/16 04:59:41;;;;;;;3.97;2.80;;;19.70;73.60;;;;;;5090067;27;43441;-72
2022/10/16 05:02:08;;;;;;;3.87;3.20;;;19.60;73.50;;;;;;5088797;27;43807;-72
2022/10/16 05:04:36;;;;;;;6.63;3.80;;;19.60;73.90;;;;;;5089148;27;43546;-70
2022/10/16 05:07:04;;;;;;;5.77;3.43;;;19.60;74.10;;;;;;5086697;28;43393;-72
2022/10/16 05:09:33;;;;;;;5.40;3.57;;;19.70;73.70;;;;;;5089783;27;43561;-71
2022/10/16 05:12:03;;;;;;;4.90;3.80;;;19.80;73.20;;;;;;5087677;28;45790;-72
2022/10/16 05:14:31;;;;;;;5.87;3.73;;;20.00;72.70;;;;;;5088925;28;43873;-71
2022/10/16 05:17:00;;;;;;;7.60;4.17;;;20.10;72.30;;;;;;5089422;28;43433;-71
2022/10/16 05:19:28;;;;;;;7.17;3.87;;;20.10;72.30;;;;;;5087621;27;43408;-71
2022/10/16 05:21:56;;;;;;;5.90;3.93;;;20.00;72.30;;;;;;5092522;27;43870;-71
2022/10/16 05:24:24;;;;;;;3.97;3.23;;;19.90;72.40;;;;;;5087402;28;45295;-70
2022/10/16 05:26:53;;;;;;;6.23;4.13;;;19.80;72.70;;;;;;5093540;27;43430;-72
2022/10/16 05:29:21;;;;;;;7.07;4.30;;;19.80;73.30;;;;;;5092969;27;43903;-71
2022/10/16 05:31:51;;;;;;;7.30;3.93;;;19.80;73.30;;;;;;5092730;27;43812;-70
2022/10/16 05:34:19;;;;;;;4.50;3.63;;;19.80;73.30;;;;;;5092213;27;44580;-70
2022/10/16 05:36:47;;;;;;;4.33;3.40;;;19.70;73.20;;;;;;5090566;28;43430;-72
2022/10/16 05:39:15;;;;;;;5.93;3.90;;;19.70;73.40;;;;;;5092808;27;43481;-74
2022/10/16 05:41:43;;;;;;;5.50;4.10;;;19.60;73.80;;;;;;5089973;27;44104;-70
2022/10/16 05:44:12;;;;;;;5.97;3.60;;;19.60;73.80;;;;;;5092295;27;43433;-72
2022/10/16 05:46:40;;;;;;;5.90;3.47;;;19.70;73.70;;;;;;5092426;27;43465;-71
2022/10/16 05:49:08;;;;;;;4.87;3.67;;;19.60;73.50;;;;;;5090085;28;43527;-71
2022/10/16 05:51:36;;;;;;;5.40;3.53;;;19.60;73.60;;;;;;5092041;27;43602;-72
2022/10/16 05:54:04;;;;;;;5.57;3.77;;;19.60;73.80;;;;;;5091705;28;43980;-72
2022/10/16 05:56:32;;;;;;;7.60;4.00;;;19.60;74.20;;;;;;5092454;27;43430;-70
2022/10/16 05:59:00;;;;;;;6.77;4.00;;;19.60;74.00;;;;;;5089076;27;43468;-71
2022/10/16 06:01:30;;;;;;;5.00;4.10;;;19.80;73.70;;;;;;5091353;27;43882;-71
2022/10/16 06:03:58;;;;;;;4.70;4.17;;;19.90;73.00;;;;;;5091456;28;43430;-72
2022/10/16 06:06:29;;;;;;;4.87;3.93;;;20.00;72.40;;;;;;5092144;27;43342;-71
2022/10/16 06:08:57;;;;;;;4.53;3.97;;;20.10;72.40;;;;;;5092334;27;43518;-70
2022/10/16 06:11:26;;;;;;;5.23;3.57;;;20.10;72.30;;;;;;5090147;27;43602;-72
2022/10/16 06:13:56;;;;;;;4.77;3.60;;;20.00;72.40;;;;;;5091647;27;44035;-70
2022/10/16 06:16:24;;;;;;;3.80;3.37;;;19.90;72.50;;;;;;5083765;28;43383;-71
2022/10/16 06:18:53;;;;;;;4.67;3.60;;;19.80;73.00;;;;;;5089915;27;43449;-71
2022/10/16 06:21:24;;;;;;;5.20;3.63;;;19.80;73.30;;;;;;5090175;28;45966;-72
2022/10/16 06:23:52;;;;;;;5.63;3.70;;;19.80;73.40;;;;;;5088934;28;44579;-71
2022/10/16 06:26:21;;;;;;;3.93;3.53;;;19.70;73.20;;;;;;5091008;27;43489;-74
2022/10/16 06:28:49;;;;;;;5.23;3.67;;;19.70;73.20;;;;;;5092222;27;43419;-72
2022/10/16 06:31:17;;;;;;;4.20;3.63;;;19.70;73.40;;;;;;5090443;27;43642;-73
2022/10/16 06:33:46;;;;;;;4.87;3.60;;;19.60;73.90;;;;;;5090029;28;44337;-72
2022/10/16 06:36:16;;;;;;;6.10;3.83;;;19.60;73.80;;;;;;5091310;27;43378;-71
2022/10/16 06:38:44;;;;;;;3.33;3.10;;;19.60;73.50;;;;;;5084713;28;43450;-72
2022/10/16 06:41:13;;;;;;;4.10;3.37;;;19.60;73.60;;;;;;5085248;28;43665;-71
2022/10/16 06:43:41;;;;;;;4.07;3.40;;;19.60;73.60;;;;;;5089586;28;43579;-72
2022/10/16 06:46:11;;;;;;;6.00;3.90;;;19.50;73.90;;;;;;5090994;27;44023;-72
2022/10/16 06:48:39;;;;;;;3.60;3.30;;;19.60;74.10;;;;;;5091512;27;43461;-72
2022/10/16 06:51:07;;;;;;;4.97;3.90;;;19.70;73.90;;;;;;5090229;28;43909;-71
2022/10/16 06:53:38;;;;;;;5.53;4.13;;;19.80;73.30;;;;;;5090981;27;43532;-72
2022/10/16 06:56:27;;;;;;;4.40;3.40;;;20.00;72.80;;;;;;5090934;27;43364;-72
2022/10/16 06:58:55;;;;;;;5.03;4.00;;;20.10;72.50;;;;;;5088264;28;43471;-71
2022/10/16 07:01:24;;;;;;;5.13;4.00;;;20.00;73.10;;;;;;5090341;27;43665;-71
2022/10/16 07:03:52;;;;;;;3.40;3.10;;;20.00;72.50;;;;;;5089507;28;43439;-72
2022/10/16 07:06:21;;;;;;;7.33;4.20;;;19.90;72.60;;;;;;5090548;28;43456;-75
2022/10/16 07:08:50;;;;;;;3.93;3.60;;;19.80;72.80;;;;;;5090767;27;43602;-72
2022/10/16 07:11:20;;;;;;;4.47;4.00;;;19.80;73.50;;;;;;5088276;28;43894;-70
2022/10/16 07:13:48;;;;;;;3.70;3.33;;;19.80;73.50;;;;;;5090681;27;43484;-72
2022/10/16 07:16:23;;;;;;;4.63;3.70;;;19.70;73.30;;;;;;5090209;27;43522;-71
2022/10/16 07:18:52;;;;;;;3.93;3.53;;;19.70;73.30;;;;;;5089751;28;43418;-71
2022/10/16 07:21:22;;;;;;;4.33;3.40;;;19.70;73.50;;;;;;5090691;27;43704;-72
2022/10/16 07:23:52;;;;;;;4.23;3.40;;;19.60;73.90;;;;;;5091245;27;43400;-71
2022/10/16 07:26:20;;;;;;;4.10;3.70;;;19.70;73.90;;;;;;5090930;27;44067;-70
2022/10/16 07:28:48;;;;;;;5.17;3.77;;;19.80;73.50;;;;;;5091140;28;43380;-73
2022/10/16 07:31:17;;;;;;;4.63;3.50;;;19.80;73.20;;;;;;5090062;27;43607;-70
2022/10/16 07:33:47;;;;;;;3.67;3.37;;;19.80;73.10;;;;;;5088388;27;44777;-71
2022/10/16 07:36:15;;;;;;;4.27;3.37;;;19.80;73.40;;;;;;5084024;28;44001;-71
2022/10/16 07:38:43;;;;;;;3.70;3.40;;;19.80;73.40;;;;;;5082670;28;43551;-74
2022/10/16 07:41:13;;;;;;;3.77;3.40;;;19.80;73.40;;;;;;5086369;28;43607;-72
2022/10/16 07:43:45;;;;;;;4.80;3.70;;;19.80;73.20;;;;;;5083483;28;43978;-73
2022/10/16 07:46:14;;;;;;;4.07;3.67;;;19.70;73.30;;;;;;5090185;27;43417;-71
2022/10/16 07:48:45;;;;;;;3.87;3.40;;;19.70;73.60;;;;;;5090795;27;43376;-73
2022/10/16 07:51:13;;;;;;;3.77;3.47;;;19.70;74.00;;;;;;5088910;28;43894;-72
2022/10/16 07:53:41;;;;;;;3.87;3.53;;;19.70;73.70;;;;;;5087833;27;43470;-70
2022/10/16 07:56:09;;;;;;;3.80;3.43;;;19.80;73.20;;;;;;5090239;27;43360;-70
2022/10/16 07:58:38;;;;;;;4.20;3.80;;;19.90;73.10;;;;;;5082991;27;44067;-70
2022/10/16 08:01:07;;;;;;;3.93;3.23;;;19.90;72.90;;;;;;5085148;27;43846;-70
2022/10/16 08:03:35;;;;;;;3.60;3.30;;;19.80;73.10;;;;;;5085793;27;43511;-73
2022/10/16 08:06:03;;;;;;;4.00;3.60;;;19.80;73.20;;;;;;5080598;27;44055;-72
2022/10/16 08:08:31;;;;;;;3.30;3.00;;;19.80;73.10;;;;;;5088929;28;43540;-71
2022/10/16 08:10:59;;;;;;;3.40;3.20;;;19.80;73.10;;;;;;5089372;27;44020;-70
2022/10/16 08:13:27;;;;;;;3.60;3.30;;;19.70;73.10;;;;;;5087179;28;44955;-71
2022/10/16 08:15:56;;;;;;;3.63;3.33;;;19.70;73.30;;;;;;5089750;27;43404;-71
2022/10/16 08:18:24;;;;;;;3.40;3.10;;;19.70;73.90;;;;;;5091314;27;43485;-72
2022/10/16 08:20:56;;;;;;;3.57;3.03;;;19.70;73.80;;;;;;5089422;27;43963;-72
2022/10/16 08:23:25;;;;;;;3.37;3.07;;;19.70;73.70;;;;;;5087349;27;43546;-71
2022/10/16 08:25:54;;;;;;;3.60;3.30;;;19.60;73.50;;;;;;5085970;28;44378;-70
2022/10/16 08:28:21;;;;;;;3.57;3.30;;;19.60;73.80;;;;;;5079375;28;43517;-72
2022/10/16 08:30:49;;;;;;;3.33;3.03;;;19.60;74.10;;;;;;5084803;27;43856;-73
2022/10/16 08:33:19;;;;;;;3.50;3.20;;;19.70;73.90;;;;;;5087861;28;43557;-70
2022/10/16 08:35:52;;;;;;;3.57;3.30;;;19.80;73.30;;;;;;5086554;27;43496;-70
2022/10/16 08:38:20;;;;;;;3.43;3.07;;;19.90;73.10;;;;;;5088246;28;43460;-73
2022/10/16 08:40:48;;;;;;;3.13;2.93;;;19.90;73.00;;;;;;5087488;27;43578;-72
2022/10/16 08:43:33;;;;;;;3.70;3.40;;;19.90;73.20;;;;;;5086581;27;43975;-72
2022/10/16 08:46:16;;;;;;;3.67;3.37;;;19.90;73.20;;;;;;5083093;27;43450;-72
2022/10/16 08:48:46;;;;;;;3.73;3.43;;;19.80;73.00;;;;;;5085044;27;43433;-72
2022/10/16 08:51:19;;;;;;;3.80;3.50;;;19.80;73.00;;;;;;5082826;27;43750;-72
2022/10/16 08:53:50;;;;;;;3.87;3.53;;;19.80;73.20;;;;;;5086989;27;44538;-72
2022/10/16 08:56:18;;;;;;;3.23;3.03;;;19.70;73.70;;;;;;5089202;27;43516;-71
2022/10/16 08:58:46;;;;;;;3.93;3.57;;;19.70;73.70;;;;;;5092129;27;43872;-71
2022/10/16 09:01:22;;;;;;;3.40;3.20;;;19.70;73.60;;;;;;5088362;27;43827;-73
2022/10/16 09:04:05;;;;;;;4.10;3.70;;;19.70;73.60;;;;;;5087932;27;44580;-72
2022/10/16 09:06:40;;;;;;;3.30;3.10;;;19.60;73.50;;;;;;5088609;27;43492;-71
2022/10/16 09:09:17;;;;;;;3.20;3.00;;;19.60;74.10;;;;;;5084776;27;43508;-72
2022/10/16 09:11:49;;;;;;;3.30;3.10;;;19.60;74.00;;;;;;5087099;27;43749;-71
2022/10/16 09:14:41;;;;;;;4.07;3.50;;;19.60;73.70;;;;;;5089222;27;43529;-70
2022/10/16 09:17:19;;;;;;;3.50;2.87;;;19.60;73.50;;;;;;5088664;27;43921;-71
2022/10/16 09:19:52;;;;;;;7.50;3.50;;;19.60;73.40;;;;;;5088109;27;43484;-72
2022/10/16 09:22:20;;;;;;;5.57;3.77;;;19.50;73.50;;;;;;5090692;28;43876;-75
2022/10/16 09:24:48;;;;;;;7.73;3.37;;;19.60;73.70;;;;;;5093512;27;43530;-71
2022/10/16 09:27:16;;;;;;;4.93;3.53;;;19.70;73.70;;;;;;5093102;27;43372;-72
2022/10/16 09:29:44;;;;;;;6.60;3.50;;;19.80;73.20;;;;;;5093188;27;43542;-71
2022/10/16 09:32:13;;;;;;;9.20;3.77;;;19.90;72.70;;;;;;5090566;27;44141;-71
2022/10/16 09:34:43;;;;;;;5.90;3.80;;;20.00;72.30;;;;;;5091612;28;43446;-74
2022/10/16 09:37:13;;;;;;;6.10;3.67;;;20.00;72.20;;;;;;5092499;27;43426;-70
2022/10/16 09:39:48;;;;;;;9.37;3.30;;;20.00;72.30;;;;;;5092485;27;43537;-72
2022/10/16 09:42:17;;;;;;;5.20;3.70;;;19.90;72.40;;;;;;5090911;28;44113;-71
2022/10/16 09:44:48;;;;;;;4.70;3.53;;;19.80;72.70;;;;;;5092529;27;43417;-71
2022/10/16 09:47:17;;;;;;;5.43;3.67;;;19.80;73.00;;;;;;5091613;27;44017;-72
2022/10/16 09:49:52;;;;;;;5.17;3.40;;;19.80;73.10;;;;;;5091920;27;43469;-71
2022/10/16 09:52:21;;;;;;;4.30;3.37;;;19.70;73.00;;;;;;5091743;28;43941;-75
2022/10/16 09:54:52;;;;;;;4.30;3.77;;;19.70;73.20;;;;;;5091228;28;43509;-71
2022/10/16 09:57:21;;;;;;;3.87;3.17;;;19.70;73.30;;;;;;5090558;27;43453;-70
2022/10/16 09:59:49;;;;;;;4.83;3.73;;;19.60;73.60;;;;;;5092027;28;44076;-72
2022/10/16 10:02:18;;;;;;;4.10;3.70;;;19.70;73.70;;;;;;5092140;27;43952;-72
2022/10/16 10:04:49;;;;;;;4.60;3.77;;;19.60;73.40;;;;;;5092009;27;43448;-72
2022/10/16 10:07:19;;;;;;;3.77;3.43;;;19.60;73.50;;;;;;5090772;28;43425;-71
2022/10/16 10:09:48;;;;;;;4.17;3.60;;;19.60;73.60;;;;;;5092272;27;43881;-73
2022/10/16 10:12:19;;;;;;;4.50;3.60;;;19.60;73.90;;;;;;5091694;28;43920;-70
2022/10/16 10:14:53;;;;;;;3.93;3.60;;;19.60;74.00;;;;;;5088253;27;43465;-68
2022/10/16 10:17:22;;;;;;;3.93;3.50;;;19.70;73.80;;;;;;5087724;27;43417;-72
2022/10/16 10:19:52;;;;;;;5.27;2.97;;;19.80;73.10;;;;;;5085543;27;43437;-75
2022/10/16 10:25:36;;;;;;;4.10;3.53;;;20.00;72.60;;;;;;5091754;22;44062;-80
2022/10/16 10:28:22;;;;;;;4.00;2.87;;;20.00;72.50;;;;;;5023378;28;43420;-79
2022/10/16 10:30:55;;;;;;;3.17;2.93;;;20.00;72.70;;;;;;5019824;28;43428;-79
2022/10/16 10:33:28;;;;;;;3.63;3.33;;;19.90;73.00;;;;;;5028153;28;45644;-80
2022/10/16 10:36:01;;;;;;;4.80;3.10;;;19.80;73.30;;;;;;5026762;28;44607;-80
2022/10/16 10:38:35;;;;;;;4.00;3.13;;;19.80;73.60;;;;;;5033354;28;43474;-81
2022/10/16 10:41:14;;;;;;;3.27;2.97;;;19.80;73.50;;;;;;5026511;28;43408;-80
2022/10/16 10:43:48;;;;;;;2.83;2.60;;;19.70;73.50;;;;;;5031670;28;44243;-80
2022/10/16 10:46:19;;;;;;;3.97;3.57;;;19.70;73.70;;;;;;5030812;28;43451;-80
2022/10/16 10:49:04;;;;;;;2.93;2.73;;;19.70;74.00;;;;;;5030673;28;43530;-80
2022/10/16 10:51:36;;;;;;;2.93;2.73;;;19.70;74.30;;;;;;5034115;28;44044;-80
2022/10/16 10:54:08;;;;;;;3.23;2.97;;;19.80;74.10;;;;;;5030068;28;43887;-83
2022/10/16 10:56:44;;;;;;;3.13;2.93;;;19.90;73.70;;;;;;5025765;28;44879;-82
2022/10/16 10:59:53;;;;;;;2.87;2.70;;;19.90;73.40;;;;;;5013888;28;44011;-82
2022/10/16 11:02:24;;;;;;;2.87;2.70;;;19.90;73.40;;;;;;5006934;28;43473;-80
2022/10/16 11:05:31;;;;;;;2.63;2.50;;;19.90;73.70;;;;;;5015868;28;45699;-80
2022/10/16 11:07:59;;;;;;;2.87;2.67;;;19.80;73.40;;;;;;5025509;28;43499;-85
2022/10/16 11:10:29;;;;;;;3.07;2.80;;;19.80;73.40;;;;;;5019025;28;43474;-84
2022/10/16 11:13:04;;;;;;;2.60;2.50;;;19.80;73.50;;;;;;5027622;28;43460;-78
2022/10/16 11:15:33;;;;;;;2.40;2.30;;;19.80;73.80;;;;;;5022566;28;45999;-79
2022/10/16 11:18:05;;;;;;;2.20;2.00;;;19.70;74.10;;;;;;5019116;28;43362;-78
2022/10/16 11:20:33;;;;;;;2.50;2.40;;;19.70;74.10;;;;;;5019473;28;43536;-82
2022/10/16 11:23:03;;;;;;;2.80;2.60;;;19.70;74.00;;;;;;5020998;28;43600;-80
2022/10/16 11:25:31;;;;;;;2.30;2.20;;;19.70;74.00;;;;;;5030720;28;43788;-83
2022/10/16 11:28:03;;;;;;;2.80;2.60;;;19.70;74.10;;;;;;5033111;28;43466;-82
2022/10/16 11:30:31;;;;;;;2.70;2.60;;;19.60;74.60;;;;;;5039831;28;43555;-80
2022/10/16 11:33:07;;;;;;;2.63;2.50;;;19.70;74.60;;;;;;5036485;28;43456;-79
2022/10/16 11:35:41;;;;;;;2.17;2.07;;;19.80;74.30;;;;;;5030170;28;43951;-81
2022/10/16 11:38:13;;;;;;;3.10;2.90;;;20.00;73.80;;;;;;5032737;28;43434;-81
2022/10/16 11:40:41;;;;;;;2.60;2.50;;;20.00;73.20;;;;;;5030651;28;43452;-79
2022/10/16 11:43:14;;;;;;;2.93;2.73;;;20.10;73.10;;;;;;5031817;28;44325;-79
2022/10/16 11:45:44;;;;;;;2.20;2.10;;;20.10;73.00;;;;;;5041616;28;46164;-82
2022/10/16 11:48:19;;;;;;;2.40;2.30;;;20.00;73.10;;;;;;5039359;28;43685;-80
2022/10/16 11:50:49;;;;;;;5.20;2.40;;;19.90;73.20;;;;;;5036016;28;43409;-79
2022/10/16 11:53:22;;;;;;;3.73;2.70;;;19.80;73.70;;;;;;5036459;28;44225;-80
2022/10/16 11:55:51;;;;;;;3.80;2.53;;;19.80;73.80;;;;;;5035221;28;43802;-80
2022/10/16 11:58:26;;;;;;;3.67;2.83;;;19.80;73.70;;;;;;5039757;28;43489;-80
2022/10/16 12:00:58;;;;;;;3.43;2.73;;;19.80;73.80;;;;;;5037610;28;43470;-81
2022/10/16 12:03:29;;;;;;;2.83;2.63;;;19.70;73.80;;;;;;5032200;28;43554;-82
2022/10/16 12:06:03;;;;;;;2.90;2.53;;;19.70;74.20;;;;;;5034504;28;43669;-81
2022/10/16 12:08:31;;;;;;;2.70;2.60;;;19.70;74.30;;;;;;5038650;28;43435;-81
2022/10/16 12:11:08;;;;;;;2.60;2.40;;;19.70;74.10;;;;;;5035956;28;43415;-81
2022/10/16 12:13:38;;;;;;;3.40;3.10;;;19.70;74.10;;;;;;5033235;28;43585;-81
2022/10/16 12:16:21;;;;;;;3.70;2.80;;;19.70;74.10;;;;;;5037832;28;44063;-80
2022/10/16 12:18:50;;;;;;;2.73;2.63;;;19.70;74.30;;;;;;5036687;28;43440;-78
2022/10/16 12:21:19;;;;;;;2.57;2.47;;;19.70;74.50;;;;;;5031679;28;43752;-81
2022/10/16 12:23:50;;;;;;;2.67;2.53;;;19.70;74.30;;;;;;5042494;28;43436;-82
2022/10/16 12:26:25;;;;;;;2.50;2.40;;;19.70;74.20;;;;;;5034185;28;46094;-82
2022/10/16 12:28:55;;;;;;;2.80;2.70;;;19.70;74.20;;;;;;5037805;28;43457;-79
2022/10/16 12:31:24;;;;;;;2.53;2.43;;;19.60;74.20;;;;;;5044382;28;43428;-79
2022/10/16 12:33:58;;;;;;;2.73;2.63;;;19.60;74.60;;;;;;5042947;28;43398;-80
2022/10/16 12:36:31;;;;;;;2.60;2.50;;;19.70;74.40;;;;;;5041417;28;44069;-79
2022/10/16 12:38:59;;;;;;;2.50;2.30;;;19.80;74.00;;;;;;5040411;28;43814;-80
2022/10/16 12:41:27;;;;;;;3.57;2.50;;;20.00;73.60;;;;;;5037165;28;43521;-81
2022/10/16 12:44:02;;;;;;;3.13;2.60;;;20.10;73.00;;;;;;5036845;28;43606;-81
2022/10/16 12:46:39;;;;;;;4.90;2.60;;;20.10;72.80;;;;;;5039106;28;44163;-79
2022/10/16 12:49:22;;;;;;;2.47;2.37;;;20.10;72.80;;;;;;5035417;28;43497;-79
2022/10/16 12:51:50;;;;;;;2.57;2.33;;;20.00;72.90;;;;;;5033047;28;43764;-79
2022/10/16 12:54:19;;;;;;;2.70;2.50;;;19.90;73.10;;;;;;5030904;28;44083;-77
2022/10/16 12:56:54;;;;;;;2.30;2.20;;;19.90;73.70;;;;;;5035940;28;45719;-78
2022/10/16 12:59:29;;;;;;;2.80;2.60;;;19.80;73.60;;;;;;5033459;28;44695;-77
2022/10/16 13:02:09;;;;;;;2.33;2.23;;;19.80;73.50;;;;;;5038118;28;43375;-79
2022/10/16 13:05:11;;;;;;;2.83;2.63;;;19.80;73.60;;;;;;5033526;28;43448;-79
2022/10/16 13:07:54;;;;;;;2.60;2.50;;;19.80;73.80;;;;;;5030289;28;45756;-83